sensor_id;sensor_type;location;lat;lon;timestamp;pressure;altitude;pressure_sealevel;temperature;humidity
74163;BME280;62515;52.758;5.076;2023-04-01T00:01:46;99120.59;;;9.50;100.00
74163;BME280;62515;52.758;5.076;2023-04-01T00:04:13;99126.63;;;9.52;100.00
74163;BME280;62515;52.758;5.076;2023-04-01T00:06:40;99126.34;;;9.55;100.00
74163;BME280;62515;52.758;5.076;2023-04-01T00:09:06;99130.25;;;9.51;100.00
74163;BME280;62515;52.758;5.076;2023-04-01T00:11:33;99127.59;;;9.51;100.00
74163;BME280;62515;52.758;5.076;2023-04-01T00:14:01;99127.72;;;9.50;100.00
74163;BME280;62515;52.758;5.076;2023-04-01T00:16:28;99133.88;;;9.50;100.00
74163;BME280;62515;52.758;5.076;2023-04-01T00:18:55;99129.72;;;9.48;100.00
74163;BME280;62515;52.758;5.076;2023-04-01T00:21:22;99128.88;;;9.47;100.00
74163;BME280;62515;52.758;5.076;2023-04-01T00:23:49;99128.31;;;9.43;100.00
74163;BME280;62515;52.758;5.076;2023-04-01T00:30:22;99147.06;;;9.42;100.00
74163;BME280;62515;52.758;5.076;2023-04-01T00:32:51;99147.19;;;9.40;100.00
74163;BME280;62515;52.758;5.076;2023-04-01T00:35:18;99140.34;;;9.38;100.00
74163;BME280;62515;52.758;5.076;2023-04-01T00:37:45;99142.88;;;9.39;100.00
74163;BME280;62515;52.758;5.076;2023-04-01T00:40:24;99143.13;;;9.36;100.00
74163;BME280;62515;52.758;5.076;2023-04-01T00:42:51;99147.34;;;9.39;100.00
74163;BME280;62515;52.758;5.076;2023-04-01T00:45:28;99142.03;;;9.39;100.00
74163;BME280;62515;52.758;5.076;2023-04-01T00:47:56;99150.69;;;9.41;100.00
74163;BME280;62515;52.758;5.076;2023-04-01T00:50:26;99151.81;;;9.38;100.00
74163;BME280;62515;52.758;5.076;2023-04-01T00:52:54;99149.28;;;9.37;100.00
74163;BME280;62515;52.758;5.076;2023-04-01T00:55:21;99154.59;;;9.37;100.00
74163;BME280;62515;52.758;5.076;2023-04-01T00:57:50;99151.09;;;9.36;100.00
74163;BME280;62515;52.758;5.076;2023-04-01T01:00:19;99151.84;;;9.29;100.00
74163;BME280;62515;52.758;5.076;2023-04-01T01:02:50;99156.84;;;9.32;100.00
74163;BME280;62515;52.758;5.076;2023-04-01T01:05:21;99160.19;;;9.34;100.00
74163;BME280;62515;52.758;5.076;2023-04-01T01:07:58;99159.22;;;9.35;100.00
74163;BME280;62515;52.758;5.076;2023-04-01T01:10:31;99168.88;;;9.36;100.00
74163;BME280;62515;52.758;5.076;2023-04-01T01:13:04;99169.16;;;9.33;100.00
74163;BME280;62515;52.758;5.076;2023-04-01T01:15:38;99168.16;;;9.34;100.00
74163;BME280;62515;52.758;5.076;2023-04-01T01:18:12;99170.41;;;9.38;100.00
74163;BME280;62515;52.758;5.076;2023-04-01T01:21:14;99176.69;;;9.37;100.00
74163;BME280;62515;52.758;5.076;2023-04-01T01:26:57;99178.78;;;9.34;100.00
74163;BME280;62515;52.758;5.076;2023-04-01T01:29:35;99180.03;;;9.30;100.00
74163;BME280;62515;52.758;5.076;2023-04-01T01:32:14;99182.56;;;9.31;100.00
74163;BME280;62515;52.758;5.076;2023-04-01T01:34:49;99188.72;;;9.32;100.00
74163;BME280;62515;52.758;5.076;2023-04-01T01:37:23;99188.00;;;9.30;100.00
74163;BME280;62515;52.758;5.076;2023-04-01T01:39:54;99189.84;;;9.29;100.00
74163;BME280;62515;52.758;5.076;2023-04-01T01:42:24;99189.00;;;9.29;100.00
74163;BME280;62515;52.758;5.076;2023-04-01T01:44:53;99198.78;;;9.28;100.00
74163;BME280;62515;52.758;5.076;2023-04-01T01:47:22;99201.28;;;9.30;100.00
74163;BME280;62515;52.758;5.076;2023-04-01T01:49:51;99204.09;;;9.28;100.00
74163;BME280;62515;52.758;5.076;2023-04-01T01:52:21;99202.13;;;9.30;100.00
74163;BME280;62515;52.758;5.076;2023-04-01T01:54:49;99205.78;;;9.29;100.00
74163;BME280;62515;52.758;5.076;2023-04-01T01:57:17;99209.53;;;9.27;100.00
74163;BME280;62515;52.758;5.076;2023-04-01T01:59:50;99213.31;;;9.24;100.00
74163;BME280;62515;52.758;5.076;2023-04-01T02:02:25;99217.75;;;9.24;100.00
74163;BME280;62515;52.758;5.076;2023-04-01T02:04:52;99221.41;;;9.23;100.00
74163;BME280;62515;52.758;5.076;2023-04-01T02:07:26;99220.88;;;9.19;100.00
74163;BME280;62515;52.758;5.076;2023-04-01T02:09:55;99232.59;;;9.17;100.00
74163;BME280;62515;52.758;5.076;2023-04-01T02:12:23;99230.63;;;9.19;100.00
74163;BME280;62515;52.758;5.076;2023-04-01T02:14:53;99230.63;;;9.19;100.00
74163;BME280;62515;52.758;5.076;2023-04-01T02:17:22;99239.56;;;9.18;100.00
74163;BME280;62515;52.758;5.076;2023-04-01T02:19:53;99238.72;;;9.17;100.00
74163;BME280;62515;52.758;5.076;2023-04-01T02:22:26;99242.94;;;9.20;100.00
74163;BME280;62515;52.758;5.076;2023-04-01T02:24:58;99251.59;;;9.22;100.00
74163;BME280;62515;52.758;5.076;2023-04-01T02:27:26;99255.22;;;9.21;100.00
74163;BME280;62515;52.758;5.076;2023-04-01T02:29:53;99257.75;;;9.22;100.00
74163;BME280;62515;52.758;5.076;2023-04-01T02:32:20;99258.31;;;9.26;100.00
74163;BME280;62515;52.758;5.076;2023-04-01T02:34:48;99261.34;;;9.21;100.00
74163;BME280;62515;52.758;5.076;2023-04-01T02:37:15;99271.00;;;9.22;100.00
74163;BME280;62515;52.758;5.076;2023-04-01T02:39:44;99271.00;;;9.22;100.00
74163;BME280;62515;52.758;5.076;2023-04-01T02:42:11;99270.16;;;9.22;100.00
74163;BME280;62515;52.758;5.076;2023-04-01T02:44:39;99269.03;;;9.24;100.00
74163;BME280;62515;52.758;5.076;2023-04-01T02:47:06;99272.41;;;9.26;100.00
74163;BME280;62515;52.758;5.076;2023-04-01T02:49:33;99282.88;;;9.28;100.00
74163;BME280;62515;52.758;5.076;2023-04-01T02:52:00;99282.88;;;9.28;100.00
74163;BME280;62515;52.758;5.076;2023-04-01T02:54:26;99287.22;;;9.29;100.00
74163;BME280;62515;52.758;5.076;2023-04-01T02:56:55;99278.25;;;9.30;100.00
74163;BME280;62515;52.758;5.076;2023-04-01T02:59:21;99285.53;;;9.28;100.00
74163;BME280;62515;52.758;5.076;2023-04-01T03:01:48;99288.88;;;9.30;100.00
74163;BME280;62515;52.758;5.076;2023-04-01T03:04:15;99292.66;;;9.27;100.00
74163;BME280;62515;52.758;5.076;2023-04-01T03:06:42;99292.66;;;9.27;100.00
74163;BME280;62515;52.758;5.076;2023-04-01T03:09:09;99298.13;;;9.26;100.00
74163;BME280;62515;52.758;5.076;2023-04-01T03:11:35;99306.06;;;9.26;100.00
74163;BME280;62515;52.758;5.076;2023-04-01T03:14:04;99308.00;;;9.24;100.00
74163;BME280;62515;52.758;5.076;2023-04-01T03:16:30;99304.66;;;9.22;100.00
74163;BME280;62515;52.758;5.076;2023-04-01T03:18:58;99315.97;;;9.24;100.00
74163;BME280;62515;52.758;5.076;2023-04-01T03:21:25;99307.88;;;9.25;100.00
74163;BME280;62515;52.758;5.076;2023-04-01T03:23:52;99324.50;;;9.27;100.00
74163;BME280;62515;52.758;5.076;2023-04-01T03:26:19;99327.31;;;9.26;100.00
74163;BME280;62515;52.758;5.076;2023-04-01T03:28:47;99326.47;;;9.25;100.00
74163;BME280;62515;52.758;5.076;2023-04-01T03:31:15;99336.94;;;9.27;100.00
74163;BME280;62515;52.758;5.076;2023-04-01T03:33:49;99344.91;;;9.27;100.00
74163;BME280;62515;52.758;5.076;2023-04-01T03:36:15;99347.56;;;9.27;100.00
74163;BME280;62515;52.758;5.076;2023-04-01T03:38:43;99347.69;;;9.25;100.00
74163;BME280;62515;52.758;5.076;2023-04-01T03:41:12;99347.44;;;9.28;100.00
74163;BME280;62515;52.758;5.076;2023-04-01T03:43:39;99352.16;;;9.25;100.00
74163;BME280;62515;52.758;5.076;2023-04-01T03:46:06;99357.19;;;9.28;100.00
74163;BME280;62515;52.758;5.076;2023-04-01T03:48:34;99357.47;;;9.25;100.00
74163;BME280;62515;52.758;5.076;2023-04-01T03:51:01;99364.75;;;9.23;100.00
74163;BME280;62515;52.758;5.076;2023-04-01T03:53:29;99361.09;;;9.24;100.00
74163;BME280;62515;52.758;5.076;2023-04-01T03:56:04;99360.28;;;9.23;100.00
74163;BME280;62515;52.758;5.076;2023-04-01T03:58:31;99367.41;;;9.23;100.00
74163;BME280;62515;52.758;5.076;2023-04-01T04:00:59;99358.03;;;9.19;100.00
74163;BME280;62515;52.758;5.076;2023-04-01T04:03:27;99373.41;;;9.25;100.00
74163;BME280;62515;52.758;5.076;2023-04-01T04:05:55;99373.41;;;9.25;100.00
74163;BME280;62515;52.758;5.076;2023-04-01T04:08:22;99380.41;;;9.26;100.00
74163;BME280;62515;52.758;5.076;2023-04-01T04:10:54;99379.41;;;9.27;100.00
74163;BME280;62515;52.758;5.076;2023-04-01T04:13:22;99371.44;;;9.27;100.00
74163;BME280;62515;52.758;5.076;2023-04-01T04:15:58;99381.09;;;9.28;100.00
74163;BME280;62515;52.758;5.076;2023-04-01T04:18:24;99388.22;;;9.27;100.00
74163;BME280;62515;52.758;5.076;2023-04-01T04:20:51;99391.72;;;9.28;100.00
74163;BME280;62515;52.758;5.076;2023-04-01T04:23:20;99390.03;;;9.27;100.00
74163;BME280;62515;52.758;5.076;2023-04-01T04:25:54;99381.94;;;9.28;100.00
74163;BME280;62515;52.758;5.076;2023-04-01T04:28:21;99401.38;;;9.29;100.00
74163;BME280;62515;52.758;5.076;2023-04-01T04:30:48;99411.13;;;9.28;100.00
74163;BME280;62515;52.758;5.076;2023-04-01T04:33:15;99399.69;;;9.28;100.00
74163;BME280;62515;52.758;5.076;2023-04-01T04:35:42;99412.25;;;9.26;100.00
74163;BME280;62515;52.758;5.076;2023-04-01T04:38:10;99413.91;;;9.27;100.00
74163;BME280;62515;52.758;5.076;2023-04-01T04:40:39;99413.91;;;9.27;100.00
74163;BME280;62515;52.758;5.076;2023-04-01T04:43:07;99422.72;;;9.27;100.00
74163;BME280;62515;52.758;5.076;2023-04-01T04:45:34;99431.81;;;9.25;100.00
74163;BME280;62515;52.758;5.076;2023-04-01T04:48:02;99430.84;;;9.26;100.00
74163;BME280;62515;52.758;5.076;2023-04-01T04:50:30;99438.91;;;9.24;100.00
74163;BME280;62515;52.758;5.076;2023-04-01T04:52:57;99433.63;;;9.24;100.00
74163;BME280;62515;52.758;5.076;2023-04-01T04:55:24;99443.13;;;9.27;100.00
74163;BME280;62515;52.758;5.076;2023-04-01T04:58:11;99458.34;;;9.25;100.00
74163;BME280;62515;52.758;5.076;2023-04-01T05:00:41;99451.34;;;9.24;100.00
74163;BME280;62515;52.758;5.076;2023-04-01T05:03:16;99455.84;;;9.23;100.00
74163;BME280;62515;52.758;5.076;2023-04-01T05:05:48;99463.66;;;9.25;100.00
74163;BME280;62515;52.758;5.076;2023-04-01T05:08:15;99471.50;;;9.26;100.00
74163;BME280;62515;52.758;5.076;2023-04-01T05:10:43;99478.88;;;9.23;100.00
74163;BME280;62515;52.758;5.076;2023-04-01T05:13:09;99480.56;;;9.24;100.00
74163;BME280;62515;52.758;5.076;2023-04-01T05:15:38;99490.19;;;9.25;100.00
74163;BME280;62515;52.758;5.076;2023-04-01T05:18:04;99482.25;;;9.25;100.00
74163;BME280;62515;52.758;5.076;2023-04-01T05:20:32;99498.84;;;9.27;100.00
74163;BME280;62515;52.758;5.076;2023-04-01T05:22:59;99502.63;;;9.24;100.00
74163;BME280;62515;52.758;5.076;2023-04-01T05:25:26;99509.75;;;9.24;100.00
74163;BME280;62515;52.758;5.076;2023-04-01T05:27:53;99500.81;;;9.25;100.00
74163;BME280;62515;52.758;5.076;2023-04-01T05:30:20;99512.28;;;9.25;100.00
74163;BME280;62515;52.758;5.076;2023-04-01T05:33:12;99513.25;;;9.24;100.00
74163;BME280;62515;52.758;5.076;2023-04-01T05:35:40;99520.25;;;9.25;100.00
74163;BME280;62515;52.758;5.076;2023-04-01T05:38:07;99528.91;;;9.27;100.00
74163;BME280;62515;52.758;5.076;2023-04-01T05:40:34;99527.25;;;9.26;100.00
74163;BME280;62515;52.758;5.076;2023-04-01T05:43:01;99531.56;;;9.27;100.00
74163;BME280;62515;52.758;5.076;2023-04-01T05:45:29;99534.09;;;9.29;100.00
74163;BME280;62515;52.758;5.076;2023-04-01T05:48:12;99539.41;;;9.29;100.00
74163;BME280;62515;52.758;5.076;2023-04-01T05:50:40;99551.69;;;9.30;100.00
74163;BME280;62515;52.758;5.076;2023-04-01T05:53:08;99550.88;;;9.29;100.00
74163;BME280;62515;52.758;5.076;2023-04-01T05:55:40;99557.16;;;9.28;100.00
74163;BME280;62515;52.758;5.076;2023-04-01T05:58:08;99557.00;;;9.30;100.00
74163;BME280;62515;52.758;5.076;2023-04-01T06:00:38;99560.66;;;9.29;100.00
74163;BME280;62515;52.758;5.076;2023-04-01T06:03:05;99566.66;;;9.31;100.00
74163;BME280;62515;52.758;5.076;2023-04-01T06:05:38;99565.81;;;9.30;100.00
74163;BME280;62515;52.758;5.076;2023-04-01T06:08:10;99565.94;;;9.29;100.00
74163;BME280;62515;52.758;5.076;2023-04-01T06:10:48;99574.88;;;9.28;100.00
74163;BME280;62515;52.758;5.076;2023-04-01T06:13:22;99579.06;;;9.30;100.00
74163;BME280;62515;52.758;5.076;2023-04-01T06:15:59;99579.34;;;9.27;100.00
74163;BME280;62515;52.758;5.076;2023-04-01T06:18:47;99588.84;;;9.30;100.00
74163;BME280;62515;52.758;5.076;2023-04-01T06:21:36;99583.44;;;9.31;100.00
74163;BME280;62515;52.758;5.076;2023-04-01T06:24:19;99596.69;;;9.31;100.00
74163;BME280;62515;52.758;5.076;2023-04-01T06:26:54;99597.97;;;9.37;100.00
74163;BME280;62515;52.758;5.076;2023-04-01T06:29:43;99601.75;;;9.34;100.00
74163;BME280;62515;52.758;5.076;2023-04-01T06:35:22;99612.94;;;9.38;100.00
74163;BME280;62515;52.758;5.076;2023-04-01T06:38:20;99609.31;;;9.39;100.00
74163;BME280;62515;52.758;5.076;2023-04-01T06:44:13;99617.56;;;9.36;100.00
74163;BME280;62515;52.758;5.076;2023-04-01T06:47:07;99626.66;;;9.43;100.00
74163;BME280;62515;52.758;5.076;2023-04-01T06:50:00;99627.38;;;9.45;100.00
74163;BME280;62515;52.758;5.076;2023-04-01T06:52:55;99636.25;;;9.55;100.00
74163;BME280;62515;52.758;5.076;2023-04-01T06:55:53;99630.94;;;9.55;100.00
74163;BME280;62515;52.758;5.076;2023-04-01T06:58:39;99632.84;;;9.53;100.00
74163;BME280;62515;52.758;5.076;2023-04-01T07:01:12;99654.69;;;9.57;100.00
74163;BME280;62515;52.758;5.076;2023-04-01T07:03:43;99644.78;;;9.59;100.00
74163;BME280;62515;52.758;5.076;2023-04-01T07:06:16;99651.06;;;9.58;100.00
74163;BME280;62515;52.758;5.076;2023-04-01T07:08:52;99658.19;;;9.57;100.00
74163;BME280;62515;52.758;5.076;2023-04-01T07:11:25;99664.06;;;9.61;100.00
74163;BME280;62515;52.758;5.076;2023-04-01T07:14:18;99666.84;;;9.59;100.00
74163;BME280;62515;52.758;5.076;2023-04-01T07:16:49;99668.81;;;9.57;100.00
74163;BME280;62515;52.758;5.076;2023-04-01T07:19:21;99669.91;;;9.55;100.00
74163;BME280;62515;52.758;5.076;2023-04-01T07:22:03;99672.25;;;9.48;100.00
74163;BME280;62515;52.758;5.076;2023-04-01T07:24:53;99677.56;;;9.48;100.00
74163;BME280;62515;52.758;5.076;2023-04-01T07:30:18;99693.81;;;9.55;100.00
74163;BME280;62515;52.758;5.076;2023-04-01T07:32:50;99698.72;;;9.59;100.00
74163;BME280;62515;52.758;5.076;2023-04-01T07:35:46;99698.66;;;9.70;100.00
74163;BME280;62515;52.758;5.076;2023-04-01T07:38:59;99709.88;;;9.74;100.00
74163;BME280;62515;52.758;5.076;2023-04-01T07:42:16;99704.81;;;9.71;100.00
74163;BME280;62515;52.758;5.076;2023-04-01T07:48:37;99716.19;;;9.52;100.00
74163;BME280;62515;52.758;5.076;2023-04-01T07:51:22;99721.28;;;9.65;100.00
74163;BME280;62515;52.758;5.076;2023-04-01T07:54:01;99725.38;;;9.69;100.00
74163;BME280;62515;52.758;5.076;2023-04-01T07:56:37;99728.53;;;9.63;100.00
74163;BME280;62515;52.758;5.076;2023-04-01T07:59:11;99728.16;;;9.67;100.00
74163;BME280;62515;52.758;5.076;2023-04-01T08:02:04;99744.13;;;9.77;100.00
74163;BME280;62515;52.758;5.076;2023-04-01T08:04:45;99743.75;;;9.81;100.00
74163;BME280;62515;52.758;5.076;2023-04-01T08:07:21;99744.50;;;9.93;100.00
74163;BME280;62515;52.758;5.076;2023-04-01T08:10:23;99744.88;;;9.88;100.00
74163;BME280;62515;52.758;5.076;2023-04-01T08:13:20;99762.56;;;9.99;100.00
74163;BME280;62515;52.758;5.076;2023-04-01T08:16:17;99767.56;;;9.92;100.00
74163;BME280;62515;52.758;5.076;2023-04-01T08:18:56;99772.56;;;9.86;100.00
74163;BME280;62515;52.758;5.076;2023-04-01T08:21:32;99772.31;;;9.89;100.00
74163;BME280;62515;52.758;5.076;2023-04-01T08:24:11;99771.06;;;9.93;100.00
74163;BME280;62515;52.758;5.076;2023-04-01T08:26:50;99776.00;;;9.97;100.00
74163;BME280;62515;52.758;5.076;2023-04-01T08:29:20;99776.53;;;9.91;100.00
74163;BME280;62515;52.758;5.076;2023-04-01T08:31:51;99778.09;;;9.94;100.00
74163;BME280;62515;52.758;5.076;2023-04-01T08:34:25;99778.25;;;10.02;100.00
74163;BME280;62515;52.758;5.076;2023-04-01T08:37:01;99764.16;;;9.81;100.00
74163;BME280;62515;52.758;5.076;2023-04-01T08:39:34;99796.44;;;9.97;100.00
74163;BME280;62515;52.758;5.076;2023-04-01T08:42:15;99791.75;;;9.89;100.00
74163;BME280;62515;52.758;5.076;2023-04-01T08:45:10;99799.16;;;9.86;100.00
74163;BME280;62515;52.758;5.076;2023-04-01T08:48:15;99795.78;;;9.84;100.00
74163;BME280;62515;52.758;5.076;2023-04-01T08:51:11;99809.25;;;9.92;100.00
74163;BME280;62515;52.758;5.076;2023-04-01T08:53:55;99813.00;;;10.10;100.00
74163;BME280;62515;52.758;5.076;2023-04-01T08:56:31;99819.00;;;10.23;100.00
74163;BME280;62515;52.758;5.076;2023-04-01T08:59:20;99809.97;;;10.45;100.00
74163;BME280;62515;52.758;5.076;2023-04-01T09:02:11;99816.00;;;10.47;100.00
74163;BME280;62515;52.758;5.076;2023-04-01T09:05:18;99820.53;;;10.56;100.00
74163;BME280;62515;52.758;5.076;2023-04-01T09:07:57;99821.69;;;10.33;100.00
74163;BME280;62515;52.758;5.076;2023-04-01T09:11:01;99821.84;;;10.41;100.00
74163;BME280;62515;52.758;5.076;2023-04-01T09:17:06;99831.44;;;10.53;100.00
74163;BME280;62515;52.758;5.076;2023-04-01T09:19:40;99840.28;;;10.63;100.00
74163;BME280;62515;52.758;5.076;2023-04-01T09:22:30;99846.84;;;10.49;100.00
74163;BME280;62515;52.758;5.076;2023-04-01T09:25:30;99847.25;;;10.55;100.00
74163;BME280;62515;52.758;5.076;2023-04-01T09:28:03;99843.75;;;10.54;100.00
74163;BME280;62515;52.758;5.076;2023-04-01T09:30:57;99857.63;;;10.58;100.00
74163;BME280;62515;52.758;5.076;2023-04-01T09:37:50;99860.91;;;10.71;100.00
74163;BME280;62515;52.758;5.076;2023-04-01T09:40:42;99872.78;;;10.67;100.00
74163;BME280;62515;52.758;5.076;2023-04-01T09:47:43;99869.78;;;10.50;100.00
74163;BME280;62515;52.758;5.076;2023-04-01T09:50:31;99874.97;;;10.52;100.00
74163;BME280;62515;52.758;5.076;2023-04-01T09:53:41;99872.38;;;10.41;100.00
74163;BME280;62515;52.758;5.076;2023-04-01T09:59:35;99888.84;;;10.56;100.00
74163;BME280;62515;52.758;5.076;2023-04-01T10:06:38;99906.84;;;10.22;100.00
74163;BME280;62515;52.758;5.076;2023-04-01T10:09:55;99905.63;;;10.26;100.00
74163;BME280;62515;52.758;5.076;2023-04-01T10:12:53;99902.44;;;10.32;100.00
74163;BME280;62515;52.758;5.076;2023-04-01T10:16:09;99913.06;;;10.32;100.00
74163;BME280;62515;52.758;5.076;2023-04-01T10:19:13;99918.13;;;10.35;100.00
74163;BME280;62515;52.758;5.076;2023-04-01T10:25:24;99927.97;;;10.44;100.00
74163;BME280;62515;52.758;5.076;2023-04-01T10:32:12;99932.59;;;10.42;100.00
74163;BME280;62515;52.758;5.076;2023-04-01T11:39:22;100010.50;;;10.74;100.00
74163;BME280;62515;52.758;5.076;2023-04-01T11:42:28;100019.72;;;10.91;100.00
74163;BME280;62515;52.758;5.076;2023-04-01T11:45:35;100026.75;;;10.92;100.00
74163;BME280;62515;52.758;5.076;2023-04-01T11:48:36;100031.91;;;10.93;100.00
74163;BME280;62515;52.758;5.076;2023-04-01T11:51:43;100032.19;;;10.90;100.00
74163;BME280;62515;52.758;5.076;2023-04-01T11:55:15;100033.78;;;11.02;100.00
74163;BME280;62515;52.758;5.076;2023-04-01T12:01:52;100047.97;;;10.82;100.00
74163;BME280;62515;52.758;5.076;2023-04-01T12:05:03;100055.56;;;10.66;100.00
74163;BME280;62515;52.758;5.076;2023-04-01T12:14:16;100077.84;;;10.54;100.00
74163;BME280;62515;52.758;5.076;2023-04-01T12:17:06;100069.22;;;10.41;100.00
74163;BME280;62515;52.758;5.076;2023-04-01T12:20:09;100085.72;;;10.56;100.00
74163;BME280;62515;52.758;5.076;2023-04-01T12:23:14;100082.19;;;10.66;100.00
74163;BME280;62515;52.758;5.076;2023-04-01T12:26:47;100095.09;;;10.91;100.00
74163;BME280;62515;52.758;5.076;2023-04-01T12:29:49;100083.72;;;10.69;100.00
74163;BME280;62515;52.758;5.076;2023-04-01T12:32:30;100108.28;;;10.72;100.00
74163;BME280;62515;52.758;5.076;2023-04-01T12:35:19;100102.63;;;10.66;100.00
74163;BME280;62515;52.758;5.076;2023-04-01T12:38:25;100117.56;;;10.46;100.00
74163;BME280;62515;52.758;5.076;2023-04-01T12:41:36;100120.16;;;10.57;100.00
74163;BME280;62515;52.758;5.076;2023-04-01T12:44:29;100112.66;;;10.62;100.00
74163;BME280;62515;52.758;5.076;2023-04-01T12:51:00;100131.59;;;10.48;100.00
74163;BME280;62515;52.758;5.076;2023-04-01T12:54:17;100138.34;;;10.52;100.00
74163;BME280;62515;52.758;5.076;2023-04-01T12:57:17;100136.13;;;10.57;100.00
74163;BME280;62515;52.758;5.076;2023-04-01T13:00:12;100141.53;;;10.67;100.00
74163;BME280;62515;52.758;5.076;2023-04-01T13:03:01;100146.84;;;10.46;100.00
74163;BME280;62515;52.758;5.076;2023-04-01T13:36:31;100207.91;;;9.92;100.00
74163;BME280;62515;52.758;5.076;2023-04-01T13:42:45;100222.19;;;9.91;100.00
74163;BME280;62515;52.758;5.076;2023-04-01T13:45:46;100225.19;;;10.09;100.00
74163;BME280;62515;52.758;5.076;2023-04-01T14:06:27;100244.75;;;10.52;100.00
74163;BME280;62515;52.758;5.076;2023-04-01T14:09:49;100255.16;;;10.55;100.00
74163;BME280;62515;52.758;5.076;2023-04-01T14:12:39;100258.91;;;10.53;100.00
74163;BME280;62515;52.758;5.076;2023-04-01T14:16:10;100265.78;;;10.66;100.00
74163;BME280;62515;52.758;5.076;2023-04-01T14:19:10;100271.56;;;10.60;100.00
74163;BME280;62515;52.758;5.076;2023-04-01T14:32:07;100295.03;;;9.99;100.00
74163;BME280;62515;52.758;5.076;2023-04-01T14:35:03;100316.06;;;10.03;100.00
74163;BME280;62515;52.758;5.076;2023-04-01T14:37:58;100316.88;;;9.92;100.00
74163;BME280;62515;52.758;5.076;2023-04-01T14:40:45;100314.09;;;9.82;100.00
74163;BME280;62515;52.758;5.076;2023-04-01T14:43:33;100327.69;;;9.67;100.00
74163;BME280;62515;52.758;5.076;2023-04-01T14:46:48;100341.13;;;9.76;100.00
74163;BME280;62515;52.758;5.076;2023-04-01T14:49:23;100333.47;;;9.61;100.00
74163;BME280;62515;52.758;5.076;2023-04-01T14:51:51;100346.16;;;9.57;100.00
74163;BME280;62515;52.758;5.076;2023-04-01T14:54:21;100353.00;;;9.49;100.00
74163;BME280;62515;52.758;5.076;2023-04-01T14:57:05;100353.00;;;9.49;100.00
74163;BME280;62515;52.758;5.076;2023-04-01T14:59:40;100368.16;;;9.35;100.00
74163;BME280;62515;52.758;5.076;2023-04-01T15:02:18;100365.31;;;9.50;100.00
74163;BME280;62515;52.758;5.076;2023-04-01T15:04:58;100369.28;;;9.44;100.00
74163;BME280;62515;52.758;5.076;2023-04-01T15:08:01;100377.78;;;9.36;100.00
74163;BME280;62515;52.758;5.076;2023-04-01T15:10:55;100383.34;;;9.33;100.00
74163;BME280;62515;52.758;5.076;2023-04-01T15:16:56;100398.00;;;9.39;100.00
74163;BME280;62515;52.758;5.076;2023-04-01T15:19:37;100392.59;;;9.28;100.00
74163;BME280;62515;52.758;5.076;2023-04-01T15:25:17;100419.16;;;9.28;100.00
74163;BME280;62515;52.758;5.076;2023-04-01T15:27:50;100408.75;;;9.25;100.00
74163;BME280;62515;52.758;5.076;2023-04-01T15:30:34;100418.75;;;9.21;100.00
74163;BME280;62515;52.758;5.076;2023-04-01T15:33:14;100433.09;;;9.19;100.00
74163;BME280;62515;52.758;5.076;2023-04-01T15:35:50;100434.09;;;9.05;100.00
74163;BME280;62515;52.758;5.076;2023-04-01T15:38:33;100432.38;;;9.17;100.00
74163;BME280;62515;52.758;5.076;2023-04-01T15:41:09;100446.28;;;9.08;100.00
74163;BME280;62515;52.758;5.076;2023-04-01T15:43:41;100448.22;;;9.06;100.00
74163;BME280;62515;52.758;5.076;2023-04-01T15:46:18;100457.88;;;9.07;100.00
74163;BME280;62515;52.758;5.076;2023-04-01T15:48:57;100471.88;;;9.09;100.00
74163;BME280;62515;52.758;5.076;2023-04-01T15:51:39;100464.03;;;9.07;100.00
74163;BME280;62515;52.758;5.076;2023-04-01T15:54:38;100471.97;;;9.07;100.00
74163;BME280;62515;52.758;5.076;2023-04-01T15:57:20;100471.22;;;9.18;100.00
74163;BME280;62515;52.758;5.076;2023-04-01T16:02:48;100495.88;;;9.20;100.00
74163;BME280;62515;52.758;5.076;2023-04-01T16:05:30;100489.31;;;9.13;100.00
74163;BME280;62515;52.758;5.076;2023-04-01T16:44:29;100581.75;;;8.68;100.00
74163;BME280;62515;52.758;5.076;2023-04-01T16:47:38;100591.31;;;8.58;100.00
74163;BME280;62515;52.758;5.076;2023-04-01T16:51:19;100597.75;;;8.54;100.00
74163;BME280;62515;52.758;5.076;2023-04-01T16:54:18;100610.66;;;8.46;100.00
74163;BME280;62515;52.758;5.076;2023-04-01T17:03:53;100634.63;;;8.32;100.00
74163;BME280;62515;52.758;5.076;2023-04-01T17:06:31;100632.69;;;8.34;100.00
74163;BME280;62515;52.758;5.076;2023-04-01T17:09:19;100635.16;;;8.37;100.00
74163;BME280;62515;52.758;5.076;2023-04-01T17:11:56;100633.00;;;8.29;100.00
74163;BME280;62515;52.758;5.076;2023-04-01T17:14:29;100654.31;;;8.28;100.00
74163;BME280;62515;52.758;5.076;2023-04-01T17:17:14;100660.38;;;8.16;100.00
74163;BME280;62515;52.758;5.076;2023-04-01T17:19:56;100665.44;;;8.06;100.00
74163;BME280;62515;52.758;5.076;2023-04-01T17:22:33;100665.31;;;8.08;100.00
74163;BME280;62515;52.758;5.076;2023-04-01T17:25:14;100669.66;;;8.09;100.00
74163;BME280;62515;52.758;5.076;2023-04-01T17:27:50;100683.66;;;8.11;100.00
74163;BME280;62515;52.758;5.076;2023-04-01T17:30:33;100689.28;;;8.06;100.00
74163;BME280;62515;52.758;5.076;2023-04-01T17:33:29;100701.47;;;8.09;100.00
74163;BME280;62515;52.758;5.076;2023-04-01T17:36:04;100712.66;;;8.00;100.00
74163;BME280;62515;52.758;5.076;2023-04-01T17:38:56;100711.53;;;7.89;100.00
74163;BME280;62515;52.758;5.076;2023-04-01T17:41:31;100715.00;;;7.90;100.00
74163;BME280;62515;52.758;5.076;2023-04-01T17:44:05;100729.31;;;7.87;100.00
74163;BME280;62515;52.758;5.076;2023-04-01T17:46:42;100729.88;;;7.78;100.00
74163;BME280;62515;52.758;5.076;2023-04-01T17:49:22;100731.47;;;7.81;100.00
74163;BME280;62515;52.758;5.076;2023-04-01T17:52:00;100742.56;;;7.73;100.00
74163;BME280;62515;52.758;5.076;2023-04-01T17:54:36;100743.69;;;7.69;100.00
74163;BME280;62515;52.758;5.076;2023-04-01T17:57:27;100755.59;;;7.62;100.00
74163;BME280;62515;52.758;5.076;2023-04-01T18:00:01;100756.84;;;7.57;100.00